Time,TemperatureF,DewpointF,PressureIn,WindDirection,WindDirectionDegrees,WindSpeedMPH,WindSpeedGustMPH,Humidity,HourlyPrecipIn,Conditions,Clouds,dailyrainin,SoftwareType,DateUTC
2013-08-21 00:02:00,56.5,50.4,23.42,South,180,0.0,2.0,80,0.00,,,0.00,meteohub,2013-08-21 06:02:00,
2013-08-21 00:07:00,56.5,50.4,23.42,South,180,0.0,2.0,80,0.00,,,0.00,meteohub,2013-08-21 06:07:00,
2013-08-21 00:12:00,56.3,50.2,23.41,SE,135,1.0,2.0,80,0.00,,,0.00,meteohub,2013-08-21 06:12:00,
2013-08-21 00:17:00,56.3,50.5,23.41,North,0,0.0,2.0,81,0.00,,,0.00,meteohub,2013-08-21 06:17:00,
2013-08-21 00:22:00,56.5,50.7,23.41,North,0,0.0,2.0,81,0.00,,,0.00,meteohub,2013-08-21 06:22:00,
2013-08-21 00:27:00,56.3,50.5,23.41,SE,135,0.0,2.0,81,0.00,,,0.00,meteohub,2013-08-21 06:27:00,
2013-08-21 00:32:00,56.3,50.2,23.41,SE,135,1.0,2.0,80,0.00,,,0.00,meteohub,2013-08-21 06:32:00,
2013-08-21 00:37:00,56.1,50.0,23.41,South,180,0.0,2.0,80,0.00,,,0.00,meteohub,2013-08-21 06:37:00,
2013-08-21 00:42:00,56.1,50.0,23.41,South,180,0.0,2.0,80,0.00,,,0.00,meteohub,2013-08-21 06:42:00,
2013-08-21 00:47:00,56.1,49.6,23.41,South,180,0.0,2.0,79,0.00,,,0.00,meteohub,2013-08-21 06:47:00,
2013-08-21 00:52:00,55.9,49.8,23.41,SE,135,2.0,2.0,80,0.00,,,0.00,meteohub,2013-08-21 06:52:00,
2013-08-21 00:57:00,55.9,49.8,23.41,South,180,0.0,2.0,80,0.00,,,0.00,meteohub,2013-08-21 06:57:00,
2013-08-21 01:02:00,55.9,49.8,23.41,South,180,0.0,2.0,80,0.00,,,0.00,meteohub,2013-08-21 07:02:00,
2013-08-21 01:07:00,55.8,49.6,23.41,South,180,0.0,2.0,80,0.00,,,0.00,meteohub,2013-08-21 07:07:00,
2013-08-21 01:12:00,55.6,49.5,23.42,South,180,0.0,1.0,80,0.00,,,0.00,meteohub,2013-08-21 07:12:00,
2013-08-21 01:17:00,55.4,49.3,23.41,SE,135,2.0,2.0,80,0.00,,,0.00,meteohub,2013-08-21 07:17:00,
2013-08-21 01:22:00,55.6,50.2,23.41,East,90,4.0,4.0,82,0.00,,,0.00,meteohub,2013-08-21 07:22:00,
2013-08-21 01:27:00,56.7,51.3,23.41,SE,135,2.0,4.0,82,0.00,,,0.00,meteohub,2013-08-21 07:27:00,
2013-08-21 01:32:00,57.0,50.9,23.41,East,90,2.0,4.0,80,0.00,,,0.00,meteohub,2013-08-21 07:32:00,
2013-08-21 01:37:00,57.2,50.4,23.41,SSE,158,2.0,4.0,78,0.00,,,0.00,meteohub,2013-08-21 07:37:00,
2013-08-21 01:42:00,57.2,50.4,23.41,South,180,2.0,3.0,78,0.00,,,0.00,meteohub,2013-08-21 07:42:00,
2013-08-21 01:47:00,57.0,50.2,23.41,SE,135,2.0,3.0,78,0.00,,,0.00,meteohub,2013-08-21 07:47:00,
2013-08-21 01:52:00,57.0,50.5,23.41,SE,135,3.0,3.0,79,0.00,,,0.00,meteohub,2013-08-21 07:52:00,
2013-08-21 01:57:00,57.0,50.2,23.41,SE,135,2.0,3.0,78,0.00,,,0.00,meteohub,2013-08-21 07:57:00,
2013-08-21 02:02:00,57.0,50.2,23.41,South,180,3.0,3.0,78,0.00,,,0.00,meteohub,2013-08-21 08:02:00,
2013-08-21 02:07:00,57.0,50.2,23.40,South,180,3.0,3.0,78,0.00,,,0.00,meteohub,2013-08-21 08:07:00,
2013-08-21 02:12:00,57.7,50.2,23.40,SE,135,2.0,3.0,76,0.00,,,0.00,meteohub,2013-08-21 08:12:00,
2013-08-21 02:17:00,57.6,50.0,23.40,South,180,2.0,3.0,76,0.00,,,0.00,meteohub,2013-08-21 08:17:00,
2013-08-21 02:22:00,57.4,49.8,23.40,SE,135,2.0,3.0,76,0.00,,,0.00,meteohub,2013-08-21 08:22:00,
2013-08-21 02:27:00,57.0,49.8,23.40,South,180,3.0,3.0,77,0.00,,,0.00,meteohub,2013-08-21 08:27:00,
2013-08-21 02:32:00,56.7,49.8,23.40,SE,135,3.0,4.0,78,0.00,,,0.00,meteohub,2013-08-21 08:32:00,
2013-08-21 02:37:00,56.7,49.8,23.40,South,180,2.0,4.0,78,0.00,,,0.00,meteohub,2013-08-21 08:37:00,
2013-08-21 02:42:00,56.5,49.6,23.40,South,180,1.0,4.0,78,0.00,,,0.00,meteohub,2013-08-21 08:42:00,
2013-08-21 02:47:00,56.3,49.5,23.40,South,180,0.0,3.0,78,0.00,,,0.00,meteohub,2013-08-21 08:47:00,
2013-08-21 02:52:00,56.1,49.3,23.40,South,180,0.0,2.0,78,0.00,,,0.00,meteohub,2013-08-21 08:52:00,
2013-08-21 02:57:00,55.8,48.9,23.40,South,180,0.0,2.0,78,0.00,,,0.00,meteohub,2013-08-21 08:57:00,
2013-08-21 03:02:00,55.4,48.7,23.40,South,180,0.0,1.0,78,0.00,,,0.00,meteohub,2013-08-21 09:02:00,
2013-08-21 03:07:00,55.0,48.9,23.40,South,180,0.0,0.0,80,0.00,,,0.00,meteohub,2013-08-21 09:07:00,
2013-08-21 03:12:00,54.7,48.6,23.40,South,180,1.0,0.0,80,0.00,,,0.00,meteohub,2013-08-21 09:12:00,
2013-08-21 03:17:00,54.1,48.4,23.40,East,90,0.0,1.0,81,0.00,,,0.00,meteohub,2013-08-21 09:17:00,
2013-08-21 03:22:00,53.8,48.4,23.41,South,180,0.0,2.0,82,0.00,,,0.00,meteohub,2013-08-21 09:22:00,
2013-08-21 03:27:00,53.6,48.2,23.40,South,180,2.0,2.0,82,0.00,,,0.00,meteohub,2013-08-21 09:27:00,
2013-08-21 03:32:00,53.8,48.7,23.40,South,180,2.0,2.0,83,0.00,,,0.00,meteohub,2013-08-21 09:32:00,
2013-08-21 03:37:00,53.8,49.1,23.40,SE,135,2.0,2.0,84,0.00,,,0.00,meteohub,2013-08-21 09:37:00,
2013-08-21 03:42:00,54.0,49.3,23.40,SE,135,2.0,2.0,84,0.00,,,0.00,meteohub,2013-08-21 09:42:00,
2013-08-21 03:47:00,54.5,49.5,23.41,SE,135,2.0,2.0,83,0.00,,,0.00,meteohub,2013-08-21 09:47:00,
2013-08-21 03:52:00,54.7,49.6,23.41,South,180,2.0,2.0,83,0.00,,,0.00,meteohub,2013-08-21 09:52:00,
2013-08-21 03:58:00,54.7,49.3,23.40,South,180,2.0,2.0,82,0.00,,,0.00,meteohub,2013-08-21 09:58:00,
2013-08-21 04:03:00,54.7,49.3,23.40,South,180,2.0,2.0,82,0.00,,,0.00,meteohub,2013-08-21 10:03:00,
2013-08-21 04:08:00,54.5,49.1,23.41,SE,135,2.0,2.0,82,0.00,,,0.00,meteohub,2013-08-21 10:08:00,
2013-08-21 04:13:00,54.3,48.9,23.41,SE,135,0.0,2.0,82,0.00,,,0.00,meteohub,2013-08-21 10:13:00,
2013-08-21 04:18:00,54.1,48.7,23.41,South,180,1.0,2.0,82,0.00,,,0.00,meteohub,2013-08-21 10:18:00,
2013-08-21 04:23:00,54.1,48.7,23.41,South,180,1.0,2.0,82,0.00,,,0.00,meteohub,2013-08-21 10:23:00,
2013-08-21 04:28:00,54.1,48.7,23.41,South,180,0.0,2.0,82,0.00,,,0.00,meteohub,2013-08-21 10:28:00,
2013-08-21 04:33:00,54.1,48.7,23.41,SW,225,0.0,2.0,82,0.00,,,0.00,meteohub,2013-08-21 10:33:00,
2013-08-21 04:38:00,54.0,48.6,23.41,SE,135,2.0,2.0,82,0.00,,,0.00,meteohub,2013-08-21 10:38:00,
2013-08-21 04:43:00,54.0,48.6,23.41,NW,315,1.0,0.0,82,0.00,,,0.00,meteohub,2013-08-21 10:43:00,
2013-08-21 04:49:00,54.7,49.3,23.41,NW,315,0.0,2.0,82,0.00,,,0.00,meteohub,2013-08-21 10:49:00,
2013-08-21 04:54:00,55.0,49.6,23.41,NW,315,0.0,2.0,82,0.00,,,0.00,meteohub,2013-08-21 10:54:00,
2013-08-21 04:59:00,55.0,49.3,23.41,SE,135,0.0,2.0,81,0.00,,,0.00,meteohub,2013-08-21 10:59:00,
2013-08-21 05:04:00,54.9,49.1,23.41,SE,135,0.0,2.0,81,0.00,,,0.00,meteohub,2013-08-21 11:04:00,
2013-08-21 05:09:00,54.7,48.6,23.41,South,180,0.0,2.0,80,0.00,,,0.00,meteohub,2013-08-21 11:09:00,
2013-08-21 05:14:00,54.1,48.4,23.41,South,180,0.0,2.0,81,0.00,,,0.00,meteohub,2013-08-21 11:14:00,
2013-08-21 05:19:00,54.0,48.2,23.41,South,180,0.0,1.0,81,0.00,,,0.00,meteohub,2013-08-21 11:19:00,
2013-08-21 05:24:00,53.6,47.8,23.41,South,180,0.0,1.0,81,0.00,,,0.00,meteohub,2013-08-21 11:24:00,
2013-08-21 05:29:00,53.4,48.4,23.41,SE,135,0.0,1.0,83,0.00,,,0.00,meteohub,2013-08-21 11:29:00,
2013-08-21 05:34:00,53.2,48.2,23.41,South,180,0.0,1.0,83,0.00,,,0.00,meteohub,2013-08-21 11:34:00,
2013-08-21 05:39:00,52.9,47.8,23.41,South,180,0.0,1.0,83,0.00,,,0.00,meteohub,2013-08-21 11:39:00,
2013-08-21 05:45:00,52.7,47.7,23.41,South,180,0.0,1.0,83,0.00,,,0.00,meteohub,2013-08-21 11:45:00,
2013-08-21 05:50:00,52.3,47.7,23.41,South,180,0.0,0.0,84,0.00,,,0.00,meteohub,2013-08-21 11:50:00,
2013-08-21 05:55:00,52.2,47.5,23.41,South,180,0.0,0.0,84,0.00,,,0.00,meteohub,2013-08-21 11:55:00,
2013-08-21 06:00:00,52.0,47.3,23.41,South,180,0.0,0.0,84,0.00,,,0.00,meteohub,2013-08-21 12:00:00,
2013-08-21 06:05:00,52.0,47.3,23.41,South,180,0.0,0.0,84,0.00,,,0.00,meteohub,2013-08-21 12:05:00,
2013-08-21 06:10:00,51.8,47.5,23.41,East,90,0.0,0.0,85,0.00,,,0.00,meteohub,2013-08-21 12:10:00,
2013-08-21 06:15:00,51.6,47.8,23.41,East,90,0.0,0.0,87,0.00,,,0.00,meteohub,2013-08-21 12:15:00,
2013-08-21 06:20:00,51.6,47.8,23.41,South,180,0.0,0.0,87,0.00,,,0.00,meteohub,2013-08-21 12:20:00,
2013-08-21 06:25:00,51.6,47.8,23.41,South,180,0.0,0.0,87,0.00,,,0.00,meteohub,2013-08-21 12:25:00,
2013-08-21 06:30:00,51.6,47.8,23.41,South,180,0.0,0.0,87,0.00,,,0.00,meteohub,2013-08-21 12:30:00,
2013-08-21 06:35:00,51.6,48.2,23.42,North,0,0.0,0.0,88,0.00,,,0.00,meteohub,2013-08-21 12:35:00,
2013-08-21 06:40:00,51.6,48.2,23.42,North,0,0.0,0.0,88,0.00,,,0.00,meteohub,2013-08-21 12:40:00,
2013-08-21 06:46:00,51.6,48.2,23.42,North,0,0.0,0.0,88,0.00,,,0.00,meteohub,2013-08-21 12:46:00,
2013-08-21 06:51:00,51.4,48.0,23.42,SE,135,0.0,0.0,88,0.00,,,0.00,meteohub,2013-08-21 12:51:00,
2013-08-21 06:56:00,51.4,48.0,23.42,South,180,0.0,1.0,88,0.00,,,0.00,meteohub,2013-08-21 12:56:00,
2013-08-21 07:01:00,51.6,48.2,23.42,South,180,0.0,1.0,88,0.00,,,0.00,meteohub,2013-08-21 13:01:00,
2013-08-21 07:06:00,51.8,48.0,23.42,NE,45,0.0,1.0,87,0.00,,,0.00,meteohub,2013-08-21 13:06:00,
2013-08-21 07:11:00,52.0,48.2,23.42,South,180,2.0,0.0,87,0.00,,,0.00,meteohub,2013-08-21 13:11:00,
2013-08-21 07:16:00,52.2,48.4,23.42,North,0,0.0,2.0,87,0.00,,,0.00,meteohub,2013-08-21 13:16:00,
2013-08-21 07:21:00,52.3,48.6,23.42,North,0,0.0,2.0,87,0.00,,,0.00,meteohub,2013-08-21 13:21:00,
2013-08-21 07:26:00,52.7,48.9,23.42,North,0,0.0,2.0,87,0.00,,,0.00,meteohub,2013-08-21 13:26:00,
2013-08-21 07:31:00,53.1,49.3,23.43,North,0,0.0,1.0,87,0.00,,,0.00,meteohub,2013-08-21 13:31:00,
2013-08-21 07:36:00,55.8,52.3,23.42,North,0,0.0,0.0,88,0.00,,,0.00,meteohub,2013-08-21 13:36:00,
2013-08-21 07:42:00,60.6,56.5,23.42,North,0,0.0,0.0,86,0.00,,,0.00,meteohub,2013-08-21 13:42:00,
2013-08-21 07:47:00,65.7,55.9,23.43,SE,135,1.0,1.0,71,0.00,,,0.00,meteohub,2013-08-21 13:47:00,
2013-08-21 07:52:00,68.5,56.3,23.43,SE,135,0.0,1.0,65,0.00,,,0.00,meteohub,2013-08-21 13:52:00,
2013-08-21 07:57:00,71.4,58.1,23.42,NNW,338,0.0,1.0,63,0.00,,,0.00,meteohub,2013-08-21 13:57:00,
2013-08-21 08:02:00,73.2,56.7,23.43,East,90,0.0,1.0,56,0.00,,,0.00,meteohub,2013-08-21 14:02:00,
2013-08-21 08:07:00,73.2,56.7,23.43,East,90,0.0,1.0,56,0.00,,,0.00,meteohub,2013-08-21 14:07:00,
2013-08-21 08:12:00,75.2,53.1,23.43,SE,135,2.0,2.0,46,0.00,,,0.00,meteohub,2013-08-21 14:12:00,
2013-08-21 08:17:00,74.5,54.1,23.43,South,180,2.0,3.0,49,0.00,,,0.00,meteohub,2013-08-21 14:17:00,
2013-08-21 08:22:00,74.7,53.6,23.43,SE,135,3.0,4.0,48,0.00,,,0.00,meteohub,2013-08-21 14:22:00,
2013-08-21 08:27:00,73.6,53.2,23.43,SE,135,2.0,4.0,49,0.00,,,0.00,meteohub,2013-08-21 14:27:00,
2013-08-21 08:32:00,73.6,53.8,23.43,SE,135,2.0,4.0,50,0.00,,,0.00,meteohub,2013-08-21 14:32:00,
2013-08-21 08:37:00,74.5,54.1,23.43,East,90,3.0,4.0,49,0.00,,,0.00,meteohub,2013-08-21 14:37:00,
2013-08-21 08:42:00,74.8,53.8,23.43,South,180,3.0,4.0,48,0.00,,,0.00,meteohub,2013-08-21 14:42:00,
2013-08-21 08:47:00,75.2,53.6,23.43,SE,135,4.0,4.0,47,0.00,,,0.00,meteohub,2013-08-21 14:47:00,
2013-08-21 08:52:00,73.9,54.1,23.43,SE,135,2.0,4.0,50,0.00,,,0.00,meteohub,2013-08-21 14:52:00,
2013-08-21 08:57:00,74.7,54.9,23.44,SW,225,1.0,4.0,50,0.00,,,0.00,meteohub,2013-08-21 14:57:00,
2013-08-21 09:02:00,76.5,53.6,23.44,North,0,2.0,4.0,45,0.00,,,0.00,meteohub,2013-08-21 15:02:00,
2013-08-21 09:07:00,74.8,53.2,23.44,North,0,0.0,3.0,47,0.00,,,0.00,meteohub,2013-08-21 15:07:00,
2013-08-21 09:12:00,74.8,52.7,23.44,North,0,2.0,2.0,46,0.00,,,0.00,meteohub,2013-08-21 15:12:00,
2013-08-21 09:17:00,74.7,52.5,23.44,North,0,2.0,2.0,46,0.00,,,0.00,meteohub,2013-08-21 15:17:00,
2013-08-21 09:22:00,73.9,52.5,23.44,North,0,2.0,2.0,47,0.00,,,0.00,meteohub,2013-08-21 15:22:00,
2013-08-21 09:27:00,76.1,53.2,23.44,North,0,2.0,2.0,45,0.00,,,0.00,meteohub,2013-08-21 15:27:00,
2013-08-21 09:32:00,76.1,53.2,23.44,North,0,2.0,2.0,45,0.00,,,0.00,meteohub,2013-08-21 15:32:00,
2013-08-21 09:38:00,77.5,54.0,23.44,North,0,2.0,2.0,44,0.00,,,0.00,meteohub,2013-08-21 15:38:00,
2013-08-21 09:43:00,77.5,53.2,23.44,North,0,1.0,2.0,43,0.00,,,0.00,meteohub,2013-08-21 15:43:00,
2013-08-21 09:48:00,78.3,54.5,23.44,North,0,2.0,2.0,44,0.00,,,0.00,meteohub,2013-08-21 15:48:00,
2013-08-21 09:53:00,79.2,54.1,23.44,North,0,2.0,2.0,42,0.00,,,0.00,meteohub,2013-08-21 15:53:00,
2013-08-21 09:58:00,79.7,54.5,23.44,North,0,1.0,2.0,42,0.00,,,0.00,meteohub,2013-08-21 15:58:00,
2013-08-21 10:03:00,80.1,54.9,23.44,North,0,2.0,2.0,42,0.00,,,0.00,meteohub,2013-08-21 16:03:00,
2013-08-21 10:08:00,80.8,54.1,23.44,North,0,2.0,2.0,40,0.00,,,0.00,meteohub,2013-08-21 16:08:00,
2013-08-21 10:13:00,82.0,55.4,23.44,SE,135,2.0,2.0,40,0.00,,,0.00,meteohub,2013-08-21 16:13:00,
2013-08-21 10:18:00,82.9,55.4,23.44,North,0,2.0,2.0,39,0.00,,,0.00,meteohub,2013-08-21 16:18:00,
2013-08-21 10:23:00,82.8,55.2,23.44,North,0,2.0,2.0,39,0.00,,,0.00,meteohub,2013-08-21 16:23:00,
2013-08-21 10:28:00,80.8,54.9,23.44,North,0,2.0,2.0,41,0.00,,,0.00,meteohub,2013-08-21 16:28:00,
2013-08-21 10:34:00,81.5,55.6,23.44,South,180,2.0,2.0,41,0.00,,,0.00,meteohub,2013-08-21 16:34:00,
2013-08-21 10:39:00,82.2,52.5,23.44,East,90,4.0,4.0,36,0.00,,,0.00,meteohub,2013-08-21 16:39:00,
2013-08-21 10:44:00,81.5,53.4,23.44,SE,135,2.0,4.0,38,0.00,,,0.00,meteohub,2013-08-21 16:44:00,
2013-08-21 10:49:00,81.9,53.8,23.44,East,90,2.0,4.0,38,0.00,,,0.00,meteohub,2013-08-21 16:49:00,
2013-08-21 10:54:00,81.0,52.9,23.44,East,90,2.0,4.0,38,0.00,,,0.00,meteohub,2013-08-21 16:54:00,
2013-08-21 10:59:00,79.0,52.5,23.44,SE,135,3.0,4.0,40,0.00,,,0.00,meteohub,2013-08-21 16:59:00,
2013-08-21 11:04:00,76.8,52.7,23.44,SSE,158,1.0,3.0,43,0.00,,,0.00,meteohub,2013-08-21 17:04:00,
2013-08-21 11:09:00,74.3,52.2,23.44,South,180,2.0,3.0,46,0.00,,,0.00,meteohub,2013-08-21 17:09:00,
2013-08-21 11:14:00,73.0,51.6,23.44,SE,135,3.0,3.0,47,0.00,,,0.00,meteohub,2013-08-21 17:14:00,
2013-08-21 11:19:00,72.9,52.0,23.44,East,90,3.0,4.0,48,0.00,,,0.00,meteohub,2013-08-21 17:19:00,
2013-08-21 11:24:00,74.5,52.3,23.44,South,180,4.0,4.0,46,0.00,,,0.00,meteohub,2013-08-21 17:24:00,
2013-08-21 11:30:00,73.8,51.6,23.44,East,90,2.0,4.0,46,0.00,,,0.00,meteohub,2013-08-21 17:30:00,
2013-08-21 11:35:00,74.5,52.3,23.43,NE,45,3.0,4.0,46,0.00,,,0.00,meteohub,2013-08-21 17:35:00,
2013-08-21 11:40:00,76.3,52.7,23.43,SE,135,3.0,4.0,44,0.00,,,0.00,meteohub,2013-08-21 17:40:00,
2013-08-21 11:45:00,77.9,52.9,23.43,East,90,2.0,4.0,42,0.00,,,0.00,meteohub,2013-08-21 17:45:00,
2013-08-21 11:50:00,79.0,49.8,23.43,SE,135,4.0,4.0,36,0.00,,,0.00,meteohub,2013-08-21 17:50:00,
2013-08-21 11:55:00,79.0,52.0,23.44,SE,135,2.0,4.0,39,0.00,,,0.00,meteohub,2013-08-21 17:55:00,
2013-08-21 12:00:00,79.5,49.5,23.44,SE,135,4.0,4.0,35,0.00,,,0.00,meteohub,2013-08-21 18:00:00,
2013-08-21 12:05:00,79.5,49.5,23.43,SE,135,4.0,8.0,35,0.00,,,0.00,meteohub,2013-08-21 18:05:00,
2013-08-21 12:10:00,78.8,48.9,23.44,North,0,2.0,8.0,35,0.00,,,0.00,meteohub,2013-08-21 18:10:00,
2013-08-21 12:15:00,78.3,49.8,23.43,ESE,113,3.0,4.0,37,0.00,,,0.00,meteohub,2013-08-21 18:15:00,
2013-08-21 12:20:00,79.5,50.9,23.44,North,0,4.0,4.0,37,0.00,,,0.00,meteohub,2013-08-21 18:20:00,
2013-08-21 12:25:00,79.9,48.9,23.44,SE,135,2.0,4.0,34,0.00,,,0.00,meteohub,2013-08-21 18:25:00,
2013-08-21 12:31:00,79.2,49.1,23.44,North,0,2.0,4.0,35,0.00,,,0.00,meteohub,2013-08-21 18:31:00,
2013-08-21 12:36:00,78.8,49.6,23.44,East,90,2.0,4.0,36,0.00,,,0.00,meteohub,2013-08-21 18:36:00,
2013-08-21 12:41:00,79.5,49.5,23.43,North,0,2.0,2.0,35,0.00,,,0.00,meteohub,2013-08-21 18:41:00,
2013-08-21 12:46:00,79.5,50.2,23.43,North,0,1.0,3.0,36,0.00,,,0.00,meteohub,2013-08-21 18:46:00,
2013-08-21 12:51:00,80.2,49.3,23.43,SE,135,4.0,4.0,34,0.00,,,0.00,meteohub,2013-08-21 18:51:00,
2013-08-21 12:56:00,80.1,50.0,23.43,North,0,2.0,4.0,35,0.00,,,0.00,meteohub,2013-08-21 18:56:00,
2013-08-21 13:01:00,79.9,50.5,23.43,NNE,23,2.0,4.0,36,0.00,,,0.00,meteohub,2013-08-21 19:01:00,
2013-08-21 13:06:00,80.4,49.5,23.43,SE,135,2.0,4.0,34,0.00,,,0.00,meteohub,2013-08-21 19:06:00,
2013-08-21 13:11:00,80.2,48.6,23.43,North,0,2.0,4.0,33,0.00,,,0.00,meteohub,2013-08-21 19:11:00,
2013-08-21 13:16:00,79.7,48.0,23.43,East,90,2.0,4.0,33,0.00,,,0.00,meteohub,2013-08-21 19:16:00,
2013-08-21 13:21:00,80.1,48.4,23.43,SW,225,2.0,4.0,33,0.00,,,0.00,meteohub,2013-08-21 19:21:00,
2013-08-21 13:27:00,79.9,48.2,23.43,South,180,2.0,3.0,33,0.00,,,0.00,meteohub,2013-08-21 19:27:00,
2013-08-21 13:32:00,79.2,47.7,23.42,SE,135,4.0,4.0,33,0.00,,,0.00,meteohub,2013-08-21 19:32:00,
2013-08-21 13:37:00,79.2,47.7,23.42,NW,315,1.0,4.0,33,0.00,,,0.00,meteohub,2013-08-21 19:37:00,
2013-08-21 13:42:00,79.0,46.6,23.42,North,0,1.0,4.0,32,0.00,,,0.00,meteohub,2013-08-21 19:42:00,
2013-08-21 13:47:00,79.0,47.5,23.42,North,0,2.0,4.0,33,0.00,,,0.00,meteohub,2013-08-21 19:47:00,
2013-08-21 13:52:00,78.8,47.3,23.42,NNW,338,1.0,3.0,33,0.00,,,0.00,meteohub,2013-08-21 19:52:00,
2013-08-21 13:57:00,79.0,47.5,23.42,North,0,2.0,3.0,33,0.00,,,0.00,meteohub,2013-08-21 19:57:00,
2013-08-21 14:02:00,79.0,48.2,23.42,North,0,2.0,2.0,34,0.00,,,0.00,meteohub,2013-08-21 20:02:00,
2013-08-21 14:07:00,79.0,48.2,23.42,North,0,2.0,2.0,34,0.00,,,0.00,meteohub,2013-08-21 20:07:00,
2013-08-21 14:12:00,77.5,46.9,23.42,NW,315,2.0,2.0,34,0.00,,,0.00,meteohub,2013-08-21 20:12:00,
2013-08-21 14:17:00,77.4,47.5,23.42,NE,45,1.0,2.0,35,0.00,,,0.00,meteohub,2013-08-21 20:17:00,
2013-08-21 14:22:00,77.4,47.5,23.42,SE,135,2.0,2.0,35,0.00,,,0.00,meteohub,2013-08-21 20:22:00,
2013-08-21 14:27:00,77.5,47.7,23.42,NE,45,2.0,2.0,35,0.00,,,0.00,meteohub,2013-08-21 20:27:00,
2013-08-21 14:32:00,78.3,48.4,23.42,NE,45,2.0,2.0,35,0.00,,,0.00,meteohub,2013-08-21 20:32:00,
2013-08-21 14:37:00,78.8,46.4,23.41,SE,135,2.0,3.0,32,0.00,,,0.00,meteohub,2013-08-21 20:37:00,
2013-08-21 14:42:00,78.8,46.4,23.41,SSE,158,2.0,4.0,32,0.00,,,0.00,meteohub,2013-08-21 20:42:00,
2013-08-21 14:47:00,78.6,44.6,23.41,SE,135,3.0,4.0,30,0.00,,,0.00,meteohub,2013-08-21 20:47:00,
2013-08-21 14:52:00,79.0,45.0,23.42,SE,135,2.0,4.0,30,0.00,,,0.00,meteohub,2013-08-21 20:52:00,
2013-08-21 14:57:00,79.2,45.1,23.41,NE,45,2.0,4.0,30,0.00,,,0.00,meteohub,2013-08-21 20:57:00,
2013-08-21 15:02:00,79.5,44.4,23.41,SE,135,2.0,3.0,29,0.00,,,0.00,meteohub,2013-08-21 21:02:00,
2013-08-21 15:07:00,79.2,44.2,23.41,North,0,1.0,2.0,29,0.00,,,0.00,meteohub,2013-08-21 21:07:00,
2013-08-21 15:12:00,79.2,45.1,23.41,North,0,2.0,2.0,30,0.00,,,0.00,meteohub,2013-08-21 21:12:00,
2013-08-21 15:17:00,78.6,44.6,23.41,North,0,2.0,2.0,30,0.00,,,0.00,meteohub,2013-08-21 21:17:00,
2013-08-21 15:22:00,78.8,44.8,23.41,North,0,1.0,2.0,30,0.00,,,0.00,meteohub,2013-08-21 21:22:00,
2013-08-21 15:27:00,79.0,44.1,23.40,North,0,2.0,2.0,29,0.00,,,0.00,meteohub,2013-08-21 21:27:00,
2013-08-21 15:32:00,78.8,43.9,23.41,North,0,1.0,2.0,29,0.00,,,0.00,meteohub,2013-08-21 21:32:00,
2013-08-21 15:37:00,79.0,45.7,23.41,North,0,1.0,2.0,31,0.00,,,0.00,meteohub,2013-08-21 21:37:00,
2013-08-21 15:42:00,79.2,45.1,23.40,North,0,2.0,2.0,30,0.00,,,0.00,meteohub,2013-08-21 21:42:00,
2013-08-21 15:47:00,78.8,44.8,23.40,North,0,2.0,2.0,30,0.00,,,0.00,meteohub,2013-08-21 21:47:00,
2013-08-21 15:52:00,78.6,44.6,23.41,North,0,2.0,2.0,30,0.00,,,0.00,meteohub,2013-08-21 21:52:00,
2013-08-21 15:57:00,78.6,46.2,23.40,North,0,0.0,2.0,32,0.00,,,0.00,meteohub,2013-08-21 21:57:00,
2013-08-21 16:02:00,79.0,45.0,23.40,North,0,2.0,2.0,30,0.00,,,0.00,meteohub,2013-08-21 22:02:00,
2013-08-21 16:07:00,79.0,45.0,23.40,North,0,2.0,2.0,30,0.00,,,0.00,meteohub,2013-08-21 22:07:00,
2013-08-21 16:12:00,79.0,39.2,23.40,North,0,2.0,3.0,24,0.00,,,0.00,meteohub,2013-08-21 22:12:00,
2013-08-21 16:17:00,78.8,41.0,23.40,NW,315,2.0,3.0,26,0.00,,,0.00,meteohub,2013-08-21 22:17:00,
2013-08-21 16:22:00,78.6,41.9,23.40,North,0,2.0,3.0,27,0.00,,,0.00,meteohub,2013-08-21 22:22:00,
2013-08-21 16:27:00,78.6,41.9,23.40,North,0,3.0,3.0,27,0.00,,,0.00,meteohub,2013-08-21 22:27:00,
2013-08-21 16:32:00,78.6,42.8,23.39,SE,135,1.0,3.0,28,0.00,,,0.00,meteohub,2013-08-21 22:32:00,
2013-08-21 16:37:00,79.0,43.2,23.39,North,0,1.0,3.0,28,0.00,,,0.00,meteohub,2013-08-21 22:37:00,
2013-08-21 16:42:00,79.2,41.4,23.39,North,0,1.0,3.0,26,0.00,,,0.00,meteohub,2013-08-21 22:42:00,
2013-08-21 16:47:00,79.2,42.3,23.39,North,0,2.0,2.0,27,0.00,,,0.00,meteohub,2013-08-21 22:47:00,
2013-08-21 16:52:00,79.3,42.4,23.39,North,0,2.0,2.0,27,0.00,,,0.00,meteohub,2013-08-21 22:52:00,
2013-08-21 16:57:00,79.5,41.5,23.39,North,0,1.0,4.0,26,0.00,,,0.00,meteohub,2013-08-21 22:57:00,
2013-08-21 17:02:00,79.5,41.5,23.39,North,0,2.0,4.0,26,0.00,,,0.00,meteohub,2013-08-21 23:02:00,
2013-08-21 17:07:00,79.3,41.5,23.39,North,0,2.0,4.0,26,0.00,,,0.00,meteohub,2013-08-21 23:07:00,
2013-08-21 17:12:00,79.0,43.2,23.39,NNW,338,2.0,2.0,28,0.00,,,0.00,meteohub,2013-08-21 23:12:00,
2013-08-21 17:17:00,78.8,42.1,23.39,SE,135,1.0,3.0,27,0.00,,,0.00,meteohub,2013-08-21 23:17:00,
2013-08-21 17:22:00,79.0,43.2,23.38,North,0,2.0,3.0,28,0.00,,,0.00,meteohub,2013-08-21 23:22:00,
2013-08-21 17:27:00,79.3,43.3,23.38,NNW,338,2.0,2.0,28,0.00,,,0.00,meteohub,2013-08-21 23:27:00,
2013-08-21 17:32:00,79.3,42.4,23.38,North,0,2.0,2.0,27,0.00,,,0.00,meteohub,2013-08-21 23:32:00,
2013-08-21 17:37:00,79.3,43.3,23.38,NW,315,2.0,3.0,28,0.00,,,0.00,meteohub,2013-08-21 23:37:00,
2013-08-21 17:42:00,79.2,44.2,23.38,North,0,2.0,3.0,29,0.00,,,0.00,meteohub,2013-08-21 23:42:00,
2013-08-21 17:47:00,79.0,43.2,23.38,North,0,3.0,3.0,28,0.00,,,0.00,meteohub,2013-08-21 23:47:00,
2013-08-21 17:52:00,78.6,45.5,23.38,NNW,338,4.0,4.0,31,0.00,,,0.00,meteohub,2013-08-21 23:52:00,
2013-08-21 17:57:00,78.6,46.2,23.38,North,0,2.0,4.0,32,0.00,,,0.00,meteohub,2013-08-21 23:57:00,
2013-08-21 18:02:00,78.8,44.8,23.38,NNW,338,2.0,4.0,30,0.00,,,0.00,meteohub,2013-08-22 00:02:00,
2013-08-21 18:07:00,78.8,44.8,23.38,NNW,338,2.0,4.0,30,0.00,,,0.00,meteohub,2013-08-22 00:07:00,
2013-08-21 18:12:00,78.4,46.2,23.39,North,0,1.0,3.0,32,0.00,,,0.00,meteohub,2013-08-22 00:12:00,
2013-08-21 18:17:00,78.3,45.1,23.39,North,0,2.0,3.0,31,0.00,,,0.00,meteohub,2013-08-22 00:17:00,
2013-08-21 18:22:00,78.1,46.6,23.38,North,0,1.0,4.0,33,0.00,,,0.00,meteohub,2013-08-22 00:22:00,
2013-08-21 18:27:00,77.7,46.4,23.38,South,180,2.0,4.0,33,0.00,,,0.00,meteohub,2013-08-22 00:27:00,
2013-08-21 18:32:00,77.7,47.1,23.39,North,0,2.0,2.0,34,0.00,,,0.00,meteohub,2013-08-22 00:32:00,
2013-08-21 18:37:00,77.5,46.9,23.39,NW,315,2.0,3.0,34,0.00,,,0.00,meteohub,2013-08-22 00:37:00,
2013-08-21 18:42:00,77.4,47.5,23.39,NW,315,2.0,3.0,35,0.00,,,0.00,meteohub,2013-08-22 00:42:00,
2013-08-21 18:47:00,77.2,48.2,23.39,North,0,2.0,3.0,36,0.00,,,0.00,meteohub,2013-08-22 00:47:00,
2013-08-21 18:52:00,77.0,48.0,23.39,North,0,2.0,3.0,36,0.00,,,0.00,meteohub,2013-08-22 00:52:00,
2013-08-21 18:57:00,76.6,49.1,23.39,North,0,2.0,3.0,38,0.00,,,0.00,meteohub,2013-08-22 00:57:00,
2013-08-21 19:02:00,76.5,48.9,23.39,North,0,2.0,3.0,38,0.00,,,0.00,meteohub,2013-08-22 01:02:00,
2013-08-21 19:07:00,76.3,49.5,23.39,North,0,2.0,2.0,39,0.00,,,0.00,meteohub,2013-08-22 01:07:00,
2013-08-21 19:12:00,76.1,49.3,23.39,NW,315,0.0,2.0,39,0.00,,,0.00,meteohub,2013-08-22 01:12:00,
2013-08-21 19:17:00,75.7,49.1,23.39,North,0,2.0,2.0,39,0.00,,,0.00,meteohub,2013-08-22 01:17:00,
2013-08-21 19:22:00,75.7,49.6,23.39,North,0,0.0,2.0,40,0.00,,,0.00,meteohub,2013-08-22 01:22:00,
2013-08-21 19:27:00,75.6,49.5,23.39,NNW,338,2.0,2.0,40,0.00,,,0.00,meteohub,2013-08-22 01:27:00,
2013-08-21 19:32:00,75.2,48.6,23.39,NNW,338,2.0,2.0,39,0.00,,,0.00,meteohub,2013-08-22 01:32:00,
2013-08-21 19:37:00,75.0,49.1,23.39,North,0,0.0,2.0,40,0.00,,,0.00,meteohub,2013-08-22 01:37:00,
2013-08-21 19:42:00,74.5,48.6,23.39,West,270,1.0,2.0,40,0.00,,,0.00,meteohub,2013-08-22 01:42:00,
2013-08-21 19:47:00,73.9,48.0,23.39,North,0,1.0,2.0,40,0.00,,,0.00,meteohub,2013-08-22 01:47:00,
2013-08-21 19:52:00,73.6,48.4,23.40,NW,315,0.0,2.0,41,0.00,,,0.00,meteohub,2013-08-22 01:52:00,
2013-08-21 19:57:00,73.0,48.0,23.39,North,0,2.0,2.0,41,0.00,,,0.00,meteohub,2013-08-22 01:57:00,
2013-08-21 20:02:00,72.7,48.2,23.39,NNW,338,2.0,2.0,42,0.00,,,0.00,meteohub,2013-08-22 02:02:00,
2013-08-21 20:07:00,71.8,48.7,23.39,North,0,1.0,2.0,44,0.00,,,0.00,meteohub,2013-08-22 02:07:00,
2013-08-21 20:12:00,71.2,48.7,23.40,North,0,0.0,2.0,45,0.00,,,0.00,meteohub,2013-08-22 02:12:00,
2013-08-21 20:17:00,70.7,48.9,23.40,North,0,0.0,2.0,46,0.00,,,0.00,meteohub,2013-08-22 02:17:00,
2013-08-21 20:22:00,70.0,48.7,23.40,North,0,2.0,2.0,47,0.00,,,0.00,meteohub,2013-08-22 02:22:00,
2013-08-21 20:27:00,69.6,49.6,23.40,NNE,23,2.0,2.0,49,0.00,,,0.00,meteohub,2013-08-22 02:27:00,
2013-08-21 20:32:00,69.4,49.5,23.40,North,0,1.0,2.0,49,0.00,,,0.00,meteohub,2013-08-22 02:32:00,
2013-08-21 20:37:00,69.1,49.6,23.40,North,0,2.0,2.0,50,0.00,,,0.00,meteohub,2013-08-22 02:37:00,
2013-08-21 20:42:00,68.7,49.8,23.40,North,0,1.0,2.0,51,0.00,,,0.00,meteohub,2013-08-22 02:42:00,
2013-08-21 20:47:00,68.7,49.8,23.41,SE,135,0.0,2.0,51,0.00,,,0.00,meteohub,2013-08-22 02:47:00,
2013-08-21 20:52:00,68.2,49.8,23.41,North,0,0.0,2.0,52,0.00,,,0.00,meteohub,2013-08-22 02:52:00,
2013-08-21 20:57:00,67.8,50.0,23.40,North,0,0.0,2.0,53,0.00,,,0.00,meteohub,2013-08-22 02:57:00,
2013-08-21 21:03:00,67.5,49.8,23.41,North,0,1.0,2.0,53,0.00,,,0.00,meteohub,2013-08-22 03:03:00,
2013-08-21 21:08:00,67.1,49.8,23.41,South,180,0.0,2.0,54,0.00,,,0.00,meteohub,2013-08-22 03:08:00,
2013-08-21 21:13:00,66.6,49.5,23.41,South,180,0.0,2.0,54,0.00,,,0.00,meteohub,2013-08-22 03:13:00,
2013-08-21 21:18:00,65.7,49.5,23.41,South,180,0.0,2.0,56,0.00,,,0.00,meteohub,2013-08-22 03:18:00,
2013-08-21 21:23:00,65.1,49.1,23.41,South,180,0.0,2.0,56,0.00,,,0.00,meteohub,2013-08-22 03:23:00,
2013-08-21 21:28:00,64.6,48.9,23.42,South,180,1.0,2.0,57,0.00,,,0.00,meteohub,2013-08-22 03:28:00,
2013-08-21 21:33:00,64.0,48.6,23.42,South,180,0.0,2.0,57,0.00,,,0.00,meteohub,2013-08-22 03:33:00,
2013-08-21 21:38:00,63.7,49.1,23.42,SE,135,0.0,2.0,59,0.00,,,0.00,meteohub,2013-08-22 03:38:00,
2013-08-21 21:44:00,63.1,49.5,23.42,SE,135,0.0,2.0,61,0.00,,,0.00,meteohub,2013-08-22 03:44:00,
2013-08-21 21:49:00,62.8,49.1,23.42,South,180,1.0,2.0,61,0.00,,,0.00,meteohub,2013-08-22 03:49:00,
2013-08-21 21:54:00,62.6,49.5,23.42,SE,135,0.0,2.0,62,0.00,,,0.00,meteohub,2013-08-22 03:54:00,
2013-08-21 21:59:00,62.2,49.1,23.42,South,180,0.0,2.0,62,0.00,,,0.00,meteohub,2013-08-22 03:59:00,
2013-08-21 22:01:00,62.2,49.1,23.42,South,180,0.0,2.0,62,0.00,,,0.00,meteohub,2013-08-22 04:01:00,
2013-08-21 22:02:00,62.1,48.9,23.42,South,180,0.0,2.0,62,0.00,,,0.00,meteohub,2013-08-22 04:02:00,
2013-08-21 22:04:00,62.1,48.9,23.42,South,180,0.0,2.0,62,0.00,,,0.00,meteohub,2013-08-22 04:04:00,
2013-08-21 22:09:00,61.7,48.9,23.42,SE,135,0.0,1.0,63,0.00,,,0.00,meteohub,2013-08-22 04:09:00,
2013-08-21 22:14:00,61.5,48.7,23.42,South,180,0.0,2.0,63,0.00,,,0.00,meteohub,2013-08-22 04:14:00,
2013-08-21 22:19:00,61.5,48.7,23.43,SW,225,0.0,2.0,63,0.00,,,0.00,meteohub,2013-08-22 04:19:00,
2013-08-21 22:25:00,61.5,48.7,23.43,SW,225,0.0,2.0,63,0.00,,,0.00,meteohub,2013-08-22 04:25:00,
2013-08-21 22:30:00,61.2,48.9,23.43,North,0,0.0,1.0,64,0.00,,,0.00,meteohub,2013-08-22 04:30:00,
2013-08-21 22:35:00,61.0,48.7,23.43,SE,135,2.0,0.0,64,0.00,,,0.00,meteohub,2013-08-22 04:35:00,
2013-08-21 22:40:00,60.8,48.9,23.43,NE,45,0.0,2.0,65,0.00,,,0.00,meteohub,2013-08-22 04:40:00,
2013-08-21 22:45:00,60.8,49.5,23.43,East,90,2.0,2.0,66,0.00,,,0.00,meteohub,2013-08-22 04:45:00,
2013-08-21 22:50:00,61.0,48.7,23.43,NE,45,0.0,2.0,64,0.00,,,0.00,meteohub,2013-08-22 04:50:00,
2013-08-21 22:55:00,61.0,49.5,23.43,SE,135,1.0,2.0,66,0.00,,,0.00,meteohub,2013-08-22 04:55:00,
2013-08-21 23:00:00,60.8,49.8,23.43,South,180,1.0,2.0,67,0.00,,,0.00,meteohub,2013-08-22 05:00:00,
2013-08-21 23:05:00,60.8,49.8,23.43,South,180,0.0,2.0,67,0.00,,,0.00,meteohub,2013-08-22 05:05:00,
2013-08-21 23:11:00,60.6,50.0,23.43,NE,45,0.0,2.0,68,0.00,,,0.00,meteohub,2013-08-22 05:11:00,
2013-08-21 23:16:00,60.4,50.2,23.43,NE,45,2.0,2.0,69,0.00,,,0.00,meteohub,2013-08-22 05:16:00,
2013-08-21 23:21:00,60.3,50.0,23.43,SE,135,1.0,2.0,69,0.00,,,0.00,meteohub,2013-08-22 05:21:00,
2013-08-21 23:26:00,60.3,49.6,23.43,South,180,1.0,2.0,68,0.00,,,0.00,meteohub,2013-08-22 05:26:00,
2013-08-21 23:31:00,60.1,49.5,23.43,NW,315,0.0,2.0,68,0.00,,,0.00,meteohub,2013-08-22 05:31:00,
2013-08-21 23:36:00,59.9,48.9,23.43,SW,225,0.0,2.0,67,0.00,,,0.00,meteohub,2013-08-22 05:36:00,
2013-08-21 23:41:00,59.7,49.1,23.43,South,180,0.0,2.0,68,0.00,,,0.00,meteohub,2013-08-22 05:41:00,
2013-08-21 23:46:00,59.4,48.4,23.44,NE,45,1.0,1.0,67,0.00,,,0.00,meteohub,2013-08-22 05:46:00,
2013-08-21 23:51:00,59.0,48.0,23.44,South,180,1.0,1.0,67,0.00,,,0.00,meteohub,2013-08-22 05:51:00,
2013-08-21 23:57:00,58.6,48.9,23.43,South,180,1.0,2.0,70,0.00,,,0.00,meteohub,2013-08-22 05:57:00,